createdAt,value
2022-09-02T00:01:46.505Z,18.50
2022-09-02T00:04:20.195Z,18.50
2022-09-02T00:06:51.632Z,18.50
2022-09-02T00:09:27.443Z,18.60
2022-09-02T00:11:58.577Z,18.60
2022-09-02T00:14:32.326Z,18.60
2022-09-02T00:17:01.541Z,18.70
2022-09-02T00:19:32.508Z,18.70
2022-09-02T00:22:03.133Z,18.70
2022-09-02T00:24:33.488Z,18.70
2022-09-02T00:27:02.376Z,18.60
2022-09-02T00:29:30.957Z,18.60
2022-09-02T00:32:00.308Z,18.70
2022-09-02T00:34:33.022Z,18.70
2022-09-02T00:37:01.556Z,18.70
2022-09-02T00:39:30.039Z,18.70
2022-09-02T00:42:01.435Z,18.70
2022-09-02T00:44:29.987Z,18.70
2022-09-02T00:46:58.471Z,18.80
2022-09-02T00:49:30.095Z,18.80
2022-09-02T00:52:05.712Z,18.80
2022-09-02T00:54:41.058Z,18.80
2022-09-02T00:57:26.093Z,18.80
2022-09-02T01:00:03.938Z,18.80
2022-09-02T01:02:33.691Z,18.80
2022-09-02T01:05:03.995Z,18.80
2022-09-02T01:07:36.841Z,18.80
2022-09-02T01:10:09.847Z,18.90
2022-09-02T01:12:40.356Z,19.00
2022-09-02T01:15:12.256Z,19.10
2022-09-02T01:17:48.559Z,19.20
2022-09-02T01:20:22.782Z,19.20
2022-09-02T01:22:57.350Z,19.20
2022-09-02T01:25:30.508Z,19.20
2022-09-02T01:28:02.976Z,19.20
2022-09-02T01:30:42.679Z,19.00
2022-09-02T01:33:12.065Z,18.90
2022-09-02T01:35:40.830Z,18.90
2022-09-02T01:38:11.487Z,18.80
2022-09-02T01:40:40.587Z,18.70
2022-09-02T01:43:13.595Z,18.70
2022-09-02T01:45:46.002Z,18.60
2022-09-02T01:48:21.313Z,18.50
2022-09-02T01:50:54.722Z,18.50
2022-09-02T01:53:25.208Z,18.50
2022-09-02T01:55:53.831Z,18.40
2022-09-02T01:58:22.985Z,18.40
2022-09-02T02:00:51.730Z,18.40
2022-09-02T02:03:22.070Z,18.40
2022-09-02T02:05:50.667Z,18.40
2022-09-02T02:08:19.574Z,18.40
2022-09-02T02:10:50.092Z,18.40
2022-09-02T02:13:18.643Z,18.30
2022-09-02T02:15:47.302Z,18.30
2022-09-02T02:18:15.835Z,18.30
2022-09-02T02:20:44.841Z,18.30
2022-09-02T02:23:13.690Z,18.30
2022-09-02T02:25:42.407Z,18.30
2022-09-02T02:28:12.452Z,18.30
2022-09-02T02:30:40.942Z,18.30
2022-09-02T02:33:09.492Z,18.30
2022-09-02T02:35:38.099Z,18.30
2022-09-02T02:38:07.149Z,18.30
2022-09-02T02:40:36.022Z,18.30
2022-09-02T02:43:04.742Z,18.30
2022-09-02T02:45:34.693Z,18.30
2022-09-02T02:48:04.168Z,18.30
2022-09-02T02:50:32.857Z,18.20
2022-09-02T02:53:02.810Z,18.20
2022-09-02T02:55:31.368Z,18.20
2022-09-02T02:57:59.856Z,18.20
2022-09-02T03:00:39.164Z,18.30
2022-09-02T03:03:12.319Z,18.30
2022-09-02T03:05:41.651Z,18.40
2022-09-02T03:08:11.694Z,18.50
2022-09-02T03:10:43.231Z,18.40
2022-09-02T03:13:15.383Z,18.40
2022-09-02T03:15:45.394Z,18.30
2022-09-02T03:18:14.127Z,18.20
2022-09-02T03:20:43.878Z,18.20
2022-09-02T03:23:13.716Z,18.20
2022-09-02T03:25:45.511Z,18.10
2022-09-02T03:28:35.583Z,18.10
2022-09-02T03:31:05.895Z,18.10
2022-09-02T03:33:34.796Z,18.10
2022-09-02T03:36:03.587Z,18.10
2022-09-02T03:38:32.059Z,18.10
2022-09-02T03:41:00.551Z,18.10
2022-09-02T03:43:29.099Z,18.10
2022-09-02T03:45:57.631Z,18.10
2022-09-02T03:48:29.491Z,18.10
2022-09-02T03:50:58.276Z,18.10
2022-09-02T03:53:27.000Z,18.00
2022-09-02T03:55:56.046Z,18.00
2022-09-02T03:58:24.744Z,18.00
2022-09-02T04:00:54.065Z,18.00
2022-09-02T04:03:23.435Z,18.00
2022-09-02T04:05:53.753Z,18.00
2022-09-02T04:08:23.548Z,18.00
2022-09-02T04:10:52.237Z,18.00
2022-09-02T04:13:21.481Z,18.00
2022-09-02T04:15:50.179Z,18.00
2022-09-02T04:18:19.834Z,18.00
2022-09-02T04:20:48.356Z,18.00
2022-09-02T04:23:18.279Z,18.00
2022-09-02T04:25:46.844Z,18.10
2022-09-02T04:28:15.392Z,18.10
2022-09-02T04:30:44.812Z,18.10
2022-09-02T04:33:13.924Z,18.00
2022-09-02T04:35:48.851Z,18.10
2022-09-02T04:38:19.139Z,18.10
2022-09-02T04:40:49.113Z,18.10
2022-09-02T04:43:18.154Z,18.10
2022-09-02T04:45:47.779Z,18.20
2022-09-02T04:48:16.385Z,18.20
2022-09-02T04:50:45.330Z,18.30
2022-09-02T04:53:14.663Z,18.20
2022-09-02T04:55:44.698Z,18.30
2022-09-02T04:58:13.360Z,18.30
2022-09-02T05:00:43.062Z,18.30
2022-09-02T05:03:11.858Z,18.30
2022-09-02T05:05:40.644Z,18.30
2022-09-02T05:08:10.127Z,18.40
2022-09-02T05:10:41.490Z,18.40
2022-09-02T05:13:11.400Z,18.40
2022-09-02T05:15:42.036Z,18.40
2022-09-02T05:21:17.719Z,18.30
2022-09-02T05:23:46.376Z,18.30
2022-09-02T05:26:15.296Z,18.40
2022-09-02T05:28:45.534Z,18.40
2022-09-02T05:31:17.769Z,18.50
2022-09-02T05:33:48.375Z,18.40
2022-09-02T05:36:20.512Z,18.50
2022-09-02T05:38:50.847Z,18.50
2022-09-02T05:41:24.245Z,18.60
2022-09-02T05:43:56.523Z,18.60
2022-09-02T05:46:28.726Z,18.70
2022-09-02T05:49:07.332Z,18.80
2022-09-02T05:51:42.311Z,18.90
2022-09-02T05:54:13.163Z,18.90
2022-09-02T05:56:45.084Z,18.90
2022-09-02T05:59:15.709Z,18.90
2022-09-02T06:01:44.555Z,18.90
2022-09-02T06:04:13.041Z,18.90
2022-09-02T06:06:42.354Z,18.90
2022-09-02T06:09:15.367Z,18.90
2022-09-02T06:11:46.085Z,19.00
2022-09-02T06:14:19.646Z,19.10
2022-09-02T06:16:50.470Z,19.20
2022-09-02T06:19:20.418Z,19.20
2022-09-02T06:21:50.143Z,19.20
2022-09-02T06:24:18.780Z,19.30
2022-09-02T06:26:47.422Z,19.30
2022-09-02T06:29:17.827Z,19.40
2022-09-02T06:31:48.895Z,19.40
2022-09-02T06:34:20.102Z,19.50
2022-09-02T06:36:51.113Z,19.40
2022-09-02T06:39:25.933Z,19.40
2022-09-02T06:41:54.467Z,19.40
2022-09-02T06:44:24.609Z,19.40
2022-09-02T06:46:59.209Z,19.40
2022-09-02T06:49:29.566Z,19.40
2022-09-02T06:51:59.849Z,19.40
2022-09-02T06:54:54.940Z,19.50
2022-09-02T06:57:24.661Z,19.50
2022-09-02T07:00:06.369Z,19.40
2022-09-02T07:02:34.886Z,19.50
2022-09-02T07:05:15.098Z,19.50
2022-09-02T07:07:48.133Z,19.60
2022-09-02T07:10:17.021Z,19.70
2022-09-02T07:12:45.491Z,19.80
2022-09-02T07:15:15.659Z,19.90
2022-09-02T07:17:44.267Z,20.00
2022-09-02T07:20:14.238Z,19.90
2022-09-02T07:22:42.875Z,20.00
2022-09-02T07:25:11.648Z,20.10
2022-09-02T07:27:40.252Z,20.10
2022-09-02T07:30:11.060Z,20.20
2022-09-02T07:32:41.184Z,20.30
2022-09-02T07:35:10.942Z,20.40
2022-09-02T07:37:39.524Z,20.40
2022-09-02T07:40:11.602Z,20.50
2022-09-02T07:42:40.295Z,20.60
2022-09-02T07:45:10.269Z,20.60
2022-09-02T07:47:40.554Z,20.60
2022-09-02T07:50:19.679Z,20.60
2022-09-02T07:52:50.604Z,20.70
2022-09-02T07:55:19.173Z,20.70
2022-09-02T07:57:56.798Z,20.70
2022-09-02T08:00:27.678Z,20.70
2022-09-02T08:02:58.138Z,20.70
2022-09-02T08:05:27.377Z,20.70
2022-09-02T08:07:56.142Z,20.70
2022-09-02T08:10:27.260Z,20.70
2022-09-02T08:12:56.303Z,20.70
2022-09-02T08:15:28.745Z,20.70
2022-09-02T08:18:01.209Z,20.70
2022-09-02T08:20:30.584Z,20.70
2022-09-02T08:23:10.813Z,20.70
2022-09-02T08:25:42.519Z,20.70
2022-09-02T08:28:11.030Z,20.70
2022-09-02T08:30:40.159Z,20.70
2022-09-02T08:33:10.130Z,20.80
2022-09-02T08:35:39.274Z,20.70
2022-09-02T08:38:07.782Z,20.70
2022-09-02T08:40:41.851Z,20.80
2022-09-02T08:43:31.469Z,20.90
2022-09-02T08:46:05.554Z,20.90
2022-09-02T08:48:41.933Z,21.10
2022-09-02T08:51:16.638Z,21.10
2022-09-02T08:54:20.826Z,21.20
2022-09-02T08:56:51.812Z,21.30
2022-09-02T08:59:25.444Z,21.40
2022-09-02T09:02:16.749Z,21.50
2022-09-02T09:05:15.488Z,21.50
2022-09-02T09:08:04.851Z,21.50
2022-09-02T09:10:46.200Z,21.40
2022-09-02T09:14:01.607Z,21.30
2022-09-02T09:16:41.392Z,21.30
2022-09-02T09:19:15.730Z,21.40
2022-09-02T09:21:46.538Z,21.40
2022-09-02T09:24:33.063Z,21.40
2022-09-02T09:27:03.619Z,21.40
2022-09-02T09:29:36.334Z,21.50
2022-09-02T09:32:14.686Z,21.40
2022-09-02T09:35:07.165Z,21.40
2022-09-02T09:37:41.242Z,21.40
2022-09-02T09:43:16.411Z,21.50
2022-09-02T09:45:47.240Z,21.50
2022-09-02T09:48:31.626Z,21.60
2022-09-02T09:51:15.984Z,21.70
2022-09-02T09:53:46.737Z,21.90
2022-09-02T09:56:32.398Z,22.10
2022-09-02T09:59:10.624Z,22.10
2022-09-02T10:01:39.239Z,22.20
2022-09-02T10:04:42.467Z,22.30
2022-09-02T10:07:00.851Z,22.30
2022-09-02T10:09:37.471Z,22.40
2022-09-02T10:12:08.841Z,22.40
2022-09-02T10:14:41.013Z,22.40
2022-09-02T10:17:33.663Z,22.40
2022-09-02T10:20:11.401Z,22.40
2022-09-02T10:23:06.859Z,22.30
2022-09-02T10:25:52.838Z,22.20
2022-09-02T10:28:43.189Z,22.10
2022-09-02T10:31:21.366Z,22.10
2022-09-02T10:34:12.035Z,22.20
2022-09-02T10:37:06.494Z,22.30
2022-09-02T10:40:08.442Z,22.30
2022-09-02T10:42:49.880Z,22.30
2022-09-02T10:45:32.357Z,22.20
2022-09-02T10:48:22.807Z,22.10
2022-09-02T10:51:02.195Z,22.10
2022-09-02T10:53:53.455Z,22.00
2022-09-02T10:56:26.909Z,21.90
2022-09-02T10:59:05.798Z,21.80
2022-09-02T11:01:45.844Z,21.80
2022-09-02T11:04:25.197Z,21.90
2022-09-02T11:07:03.516Z,21.90
2022-09-02T11:09:37.922Z,21.90
2022-09-02T11:12:16.757Z,22.00
2022-09-02T11:15:03.811Z,22.10
2022-09-02T11:17:42.373Z,22.30
2022-09-02T11:20:20.074Z,22.50
2022-09-02T11:23:24.127Z,22.70
2022-09-02T11:26:01.413Z,22.70
2022-09-02T11:28:43.478Z,22.90
2022-09-02T11:31:23.029Z,23.00
2022-09-02T11:33:59.464Z,23.10
2022-09-02T11:36:33.254Z,23.30
2022-09-02T11:39:09.307Z,23.50
2022-09-02T11:41:58.333Z,23.50
2022-09-02T11:45:10.338Z,23.50
2022-09-02T11:48:25.187Z,23.60
2022-09-02T11:51:27.214Z,23.60
2022-09-02T11:54:00.237Z,23.60
2022-09-02T11:56:40.937Z,23.80
2022-09-02T11:59:20.418Z,23.80
2022-09-02T12:01:53.043Z,23.80
2022-09-02T12:04:58.732Z,24.00
2022-09-02T12:07:33.845Z,24.20
2022-09-02T12:10:06.137Z,24.30
2022-09-02T12:13:09.820Z,24.40
2022-09-02T12:15:40.681Z,24.50
2022-09-02T12:18:27.727Z,24.60
2022-09-02T12:21:18.754Z,24.70
2022-09-02T12:24:22.435Z,24.80
2022-09-02T12:27:27.615Z,24.70
2022-09-02T12:29:58.863Z,24.80
2022-09-02T12:33:13.447Z,24.90
2022-09-02T12:35:58.289Z,25.10
2022-09-02T12:38:34.397Z,25.20
2022-09-02T12:41:30.975Z,25.10
2022-09-02T12:44:27.392Z,25.10
2022-09-02T12:47:09.714Z,25.00
2022-09-02T12:49:50.680Z,24.90
2022-09-02T12:52:44.598Z,24.90
2022-09-02T12:55:23.697Z,24.90
2022-09-02T12:57:55.692Z,24.90
2022-09-02T13:00:36.202Z,25.00
2022-09-02T13:03:39.411Z,25.00
2022-09-02T13:06:22.328Z,24.90
2022-09-02T13:09:37.829Z,24.70
2022-09-02T13:12:57.211Z,24.40
2022-09-02T13:15:45.629Z,24.30
2022-09-02T13:19:08.518Z,24.30
2022-09-02T13:22:03.611Z,24.40
2022-09-02T13:25:07.375Z,24.50
2022-09-02T13:28:23.942Z,24.40
2022-09-02T13:31:20.672Z,24.30
2022-09-02T13:33:58.185Z,24.20
2022-09-02T13:36:32.736Z,24.20
2022-09-02T13:39:15.696Z,24.00
2022-09-02T13:41:44.689Z,23.90
2022-09-02T13:44:22.518Z,23.70
2022-09-02T13:46:54.624Z,23.60
2022-09-02T13:49:27.176Z,23.50
2022-09-02T13:51:57.747Z,23.30
2022-09-02T13:54:35.681Z,23.20
2022-09-02T13:57:09.648Z,23.00
2022-09-02T13:59:47.735Z,22.80
2022-09-02T14:02:27.201Z,22.60
2022-09-02T14:05:01.257Z,22.20
2022-09-02T14:07:36.524Z,21.90
2022-09-02T14:10:10.966Z,21.50
2022-09-02T14:12:41.765Z,21.20
2022-09-02T14:15:16.927Z,21.00
2022-09-02T14:17:45.501Z,21.00
2022-09-02T14:20:23.334Z,20.90
2022-09-02T14:22:57.390Z,20.90
2022-09-02T14:25:29.121Z,20.90
2022-09-02T14:28:02.139Z,20.90
2022-09-02T14:30:59.629Z,21.00
2022-09-02T14:33:41.443Z,20.90
2022-09-02T14:36:14.427Z,20.90
2022-09-02T14:38:55.534Z,20.90
2022-09-02T14:41:26.676Z,20.90
2022-09-02T14:43:59.555Z,20.70
2022-09-02T14:46:33.638Z,20.60
2022-09-02T14:49:06.635Z,20.50
2022-09-02T14:51:44.987Z,20.50
2022-09-02T14:54:34.144Z,20.50
2022-09-02T14:57:04.910Z,20.50
2022-09-02T14:59:33.416Z,20.50
2022-09-02T15:02:03.377Z,20.50
2022-09-02T15:04:35.637Z,20.50
2022-09-02T15:07:04.157Z,20.50
2022-09-02T15:09:33.874Z,20.50
2022-09-02T15:12:03.043Z,20.50
2022-09-02T15:14:31.796Z,20.50
2022-09-02T15:17:03.033Z,20.50
2022-09-02T15:19:33.681Z,20.50
2022-09-02T15:22:03.619Z,20.50
2022-09-02T15:24:32.203Z,20.50
2022-09-02T15:27:00.844Z,20.50
2022-09-02T15:29:32.450Z,20.40
2022-09-02T15:32:05.099Z,20.40
2022-09-02T15:34:34.571Z,20.30
2022-09-02T15:37:03.456Z,20.20
2022-09-02T15:39:32.089Z,20.20
2022-09-02T15:42:00.753Z,20.10
2022-09-02T15:44:31.237Z,20.00
2022-09-02T15:46:59.841Z,19.90
2022-09-02T15:49:30.731Z,19.80
2022-09-02T15:52:01.483Z,19.70
2022-09-02T15:54:31.634Z,19.60
2022-09-02T15:57:01.201Z,19.50
2022-09-02T15:59:29.735Z,19.40
2022-09-02T16:01:59.524Z,19.30
2022-09-02T16:04:30.076Z,19.20
2022-09-02T16:06:59.181Z,19.20
2022-09-02T16:09:27.818Z,19.20
2022-09-02T16:11:57.101Z,19.10
2022-09-02T16:14:26.878Z,19.10
2022-09-02T16:16:57.391Z,19.00
2022-09-02T16:19:30.377Z,18.90
2022-09-02T16:22:00.719Z,18.90
2022-09-02T16:24:29.385Z,18.90
2022-09-02T16:26:57.972Z,18.80
2022-09-02T16:29:28.295Z,18.80
2022-09-02T16:32:14.541Z,18.70
2022-09-02T16:34:46.834Z,18.60
2022-09-02T16:37:17.664Z,18.60
2022-09-02T16:39:46.240Z,18.60
2022-09-02T16:42:14.847Z,18.60
2022-09-02T16:44:43.323Z,18.60
2022-09-02T16:47:11.904Z,18.50
2022-09-02T16:49:42.788Z,18.50
2022-09-02T16:52:11.572Z,18.40
2022-09-02T16:54:41.957Z,18.30
2022-09-02T16:57:11.361Z,18.30
2022-09-02T16:59:39.801Z,18.20
2022-09-02T17:02:08.692Z,18.20
2022-09-02T17:04:37.562Z,18.10
2022-09-02T17:07:06.267Z,18.10
2022-09-02T17:09:34.783Z,18.10
2022-09-02T17:12:05.071Z,18.00
2022-09-02T17:14:33.642Z,18.00
2022-09-02T17:17:02.299Z,18.00
2022-09-02T17:19:32.672Z,18.00
2022-09-02T17:22:01.515Z,17.90
2022-09-02T17:24:30.962Z,17.80
2022-09-02T17:27:00.677Z,17.80
2022-09-02T17:32:20.785Z,17.70
2022-09-02T17:34:51.795Z,17.70
2022-09-02T17:37:22.111Z,17.60
2022-09-02T17:39:51.627Z,17.60
2022-09-02T17:42:21.471Z,17.50
2022-09-02T17:44:51.863Z,17.50
2022-09-02T17:47:24.178Z,17.50
2022-09-02T17:49:53.174Z,17.40
2022-09-02T17:52:24.343Z,17.40
2022-09-02T17:54:55.234Z,17.40
2022-09-02T17:57:42.701Z,17.40
2022-09-02T18:00:17.750Z,17.30
2022-09-02T18:03:16.997Z,17.30
2022-09-02T18:06:05.785Z,17.30
2022-09-02T18:08:45.488Z,17.30
2022-09-02T18:11:14.673Z,17.20
2022-09-02T18:13:56.262Z,17.20
2022-09-02T18:16:33.568Z,17.20
2022-09-02T18:19:19.711Z,17.20
2022-09-02T18:22:08.697Z,17.20
2022-09-02T18:24:59.164Z,17.20
2022-09-02T18:27:44.636Z,17.20
2022-09-02T18:30:28.009Z,17.20
2022-09-02T18:33:35.422Z,17.10
2022-09-02T18:36:21.764Z,17.10
2022-09-02T18:39:06.525Z,17.10
2022-09-02T18:41:51.929Z,17.10
2022-09-02T18:44:36.933Z,17.10
2022-09-02T18:47:11.331Z,17.00
2022-09-02T18:49:43.125Z,17.00
2022-09-02T18:52:12.926Z,17.00
2022-09-02T18:54:48.335Z,17.00
2022-09-02T18:57:17.541Z,16.90
2022-09-02T18:59:55.892Z,16.90
2022-09-02T19:02:33.826Z,16.90
2022-09-02T19:05:07.411Z,16.80
2022-09-02T19:07:55.507Z,16.80
2022-09-02T19:10:24.941Z,16.90
2022-09-02T19:12:54.402Z,16.90
2022-09-02T19:15:23.939Z,16.90
2022-09-02T19:17:52.595Z,16.90
2022-09-02T19:20:23.679Z,16.80
2022-09-02T19:22:57.253Z,16.80
2022-09-02T19:25:31.447Z,16.90
2022-09-02T19:28:06.026Z,16.90
2022-09-02T19:30:37.419Z,16.90
2022-09-02T19:33:13.736Z,16.90
2022-09-02T19:35:50.041Z,16.90
2022-09-02T19:38:18.547Z,16.90
2022-09-02T19:40:49.566Z,16.90
2022-09-02T19:43:18.473Z,16.80
2022-09-02T19:45:51.461Z,16.80
2022-09-02T19:48:20.980Z,16.80
2022-09-02T19:50:51.025Z,16.80
2022-09-02T19:53:25.729Z,16.80
2022-09-02T19:55:54.242Z,16.80
2022-09-02T19:58:23.011Z,16.80
2022-09-02T20:00:54.280Z,16.80
2022-09-02T20:03:22.980Z,16.70
2022-09-02T20:05:53.669Z,16.70
2022-09-02T20:08:24.487Z,16.80
2022-09-02T20:10:57.130Z,16.80
2022-09-02T20:13:26.374Z,16.70
2022-09-02T20:15:56.616Z,16.70
2022-09-02T20:18:27.803Z,16.70
2022-09-02T20:21:00.857Z,16.60
2022-09-02T20:23:33.676Z,16.60
2022-09-02T20:26:29.463Z,16.60
2022-09-02T20:29:28.209Z,16.60
2022-09-02T20:32:12.928Z,16.60
2022-09-02T20:35:02.616Z,16.70
2022-09-02T20:37:50.672Z,16.70
2022-09-02T20:40:35.006Z,16.80
2022-09-02T20:43:28.863Z,16.70
2022-09-02T20:46:05.108Z,16.70
2022-09-02T20:48:53.902Z,16.70
2022-09-02T20:51:30.234Z,16.70
2022-09-02T20:54:22.993Z,16.60
2022-09-02T20:57:06.610Z,16.60
2022-09-02T21:00:03.938Z,16.60
2022-09-02T21:02:39.060Z,16.60
2022-09-02T21:05:22.377Z,16.50
2022-09-02T21:08:03.692Z,16.50
2022-09-02T21:10:39.345Z,16.50
2022-09-02T21:13:16.802Z,16.50
2022-09-02T21:15:51.891Z,16.50
2022-09-02T21:18:36.082Z,16.50
2022-09-02T21:21:11.606Z,16.50
2022-09-02T21:23:49.325Z,16.50
2022-09-02T21:26:25.884Z,16.50
2022-09-02T21:29:04.578Z,16.50
2022-09-02T21:31:39.424Z,16.50
2022-09-02T21:34:20.859Z,16.50
2022-09-02T21:36:51.262Z,16.40
2022-09-02T21:39:20.135Z,16.50
2022-09-02T21:42:04.089Z,16.50
2022-09-02T21:44:48.002Z,16.50
2022-09-02T21:47:24.870Z,16.50
2022-09-02T21:50:11.442Z,16.60
2022-09-02T21:53:01.720Z,16.60
2022-09-02T21:56:00.380Z,16.60
2022-09-02T21:58:50.176Z,16.60
2022-09-02T22:01:44.586Z,16.70
2022-09-02T22:04:39.130Z,16.60
2022-09-02T22:07:21.198Z,16.60
2022-09-02T22:10:03.999Z,16.60
2022-09-02T22:12:41.180Z,16.60
2022-09-02T22:15:28.660Z,16.60
2022-09-02T22:18:11.991Z,16.60
2022-09-02T22:20:44.132Z,16.60
2022-09-02T22:23:25.757Z,16.60
2022-09-02T22:25:56.982Z,16.60
2022-09-02T22:28:36.851Z,16.60
2022-09-02T22:31:16.150Z,16.60
2022-09-02T22:33:55.856Z,16.60
2022-09-02T22:36:39.683Z,16.60
2022-09-02T22:39:08.337Z,16.60
2022-09-02T22:41:53.145Z,16.60
2022-09-02T22:44:54.124Z,16.60
2022-09-02T22:47:43.659Z,16.60
2022-09-02T22:50:38.491Z,16.50
2022-09-02T22:53:07.049Z,16.40
2022-09-02T22:55:59.543Z,16.40
2022-09-02T22:59:08.971Z,16.40
2022-09-02T23:01:53.711Z,16.40
2022-09-02T23:04:54.981Z,16.40
2022-09-02T23:07:25.196Z,16.40
2022-09-02T23:09:59.004Z,16.40
2022-09-02T23:12:41.643Z,16.40
2022-09-02T23:15:29.381Z,16.40
2022-09-02T23:18:07.445Z,16.40
2022-09-02T23:20:48.277Z,16.30
2022-09-02T23:23:39.017Z,16.30
2022-09-02T23:26:33.983Z,16.20
2022-09-02T23:29:18.246Z,16.30
2022-09-02T23:32:20.856Z,16.30
2022-09-02T23:35:21.545Z,16.30
2022-09-02T23:38:32.444Z,16.30
2022-09-02T23:41:10.281Z,16.30
2022-09-02T23:43:41.449Z,16.30
2022-09-02T23:46:27.618Z,16.30
2022-09-02T23:49:12.361Z,16.30
2022-09-02T23:51:56.899Z,16.30
2022-09-02T23:54:50.837Z,16.30
2022-09-02T23:57:45.992Z,16.20
